17:15
Airports
Links
Donate
Help keep this website running!
PayPal
Bitcoin
MATER
No METAR for NLWW
Current Weather Conditions at
No weather report for NLWW
TAF
TAF NLWW 211100Z 2112/2212 VRB03KT 9999 SCT025 TEMPO 2112/2212 SHRA FEW020CB PROB30 TEMPO 2112/2118 3000 SHRA BKN014 SCT020CB
Forecast at NLWW
TEMPO 12:00 21-11-17 to 18:00 21-11-17
30% SHRA
Visibility:1.86 statute miles
1400BKN Broken
2000SCT Scattered
12:00 21-11-17 to 12:00 22-11-17
Wind:3 Knots from 360°
Visibility:6.21 statute miles
2500SCT Scattered
TEMPO 12:00 21-11-17 to 12:00 22-11-17
SHRA
2000FEW A few